Abspann, Germany

4:13 PM CET on February 19, 2017 (GMT +0100)
Kemnather Straße | | Change Station

Elev 1712 ft 49.84 °N, 12.04 °E | Updated 5 minutes ago

Partly Cloudy
Partly Cloudy
42.4 °F
Feels Like 42 °F
N
1.9
Wind Variable Wind from NW
Gusts 5.0 mph

Today
High -- | Low -- °F
--% Chance of Precip.
Yesterday
High -- | Low -- °F
Precip. -- in
Pressure 30.19 in
Visibility 6.2 miles
Clouds Few 3000 ft
Scattered Clouds 16000 ft
Windchill 42 °F
Dew Point 35 °F
Humidity 74%
Rainfall 0.00 in
Snow Depth Not available.
7:14 AM 5:37 PM
Last Quarter, 42% visible
METAR ETIC 191358Z AUTO 22007KT 9999 FEW030 SCT160 07/00 A3013 RMK AO2 SLP221
Pressure 30.19 in
Visibility 6.2 miles
Clouds Few 3000 ft
Scattered Clouds 16000 ft
Windchill 42 °F
Dew Point 35 °F
Humidity 74%
Rainfall 0.00 in
Snow Depth Not available.
7:14 AM 5:37 PM
Last Quarter, 42% visible
METAR ETIC 191358Z AUTO 22007KT 9999 FEW030 SCT160 07/00 A3013 RMK AO2 SLP221

Get Your Daily Forecast Email!

Thanks for signing up!

Be on the lookout for a verification email in your inbox.

You'll start receiving the daily forecast at 8 AM.

×

10-Day Weather Forecast

×

Almanac

Astronomy

Feb. 19, 2017 Rise Set
Actual Time
Civil Twilight
Nautical Twilight
Astronomical Twilight
Moon
Length of Visible Light
Length of Day
Tomorrow will be .
, % of the Moon is Illuminated

Today's Extremes

Country Highs Country Lows

Community

WunderPhotos

Upload Photos

1,962,540 photos uploaded!

WunderBlog® & News

Nearby

Air Quality

  Air Quality AQ Index Pollutant
Not available.

Snow Depth

Station Depth Elevation

Earthquake Activity

City Distance Mag. Time & Date
Minimum magnitude displayed is 2.5.

Coastal Water Temperatures

Place Temperature

Stations

Nearby Weather Stations

Station Location Temp. Windchill Dew Point Humidity Wind Precip. Elev Updated Type